createdAt,value
2022-12-31T00:01:10.420Z,14.32
2022-12-31T00:03:38.909Z,13.95
2022-12-31T00:06:16.242Z,12.38
2022-12-31T00:08:45.234Z,12.40
2022-12-31T00:11:13.289Z,11.73
2022-12-31T00:13:40.750Z,11.15
2022-12-31T00:16:17.594Z,13.10
2022-12-31T00:18:47.028Z,11.52
2022-12-31T00:21:18.242Z,12.40
2022-12-31T00:23:46.101Z,12.55
2022-12-31T00:26:21.406Z,12.82
2022-12-31T00:28:49.419Z,16.48
2022-12-31T00:31:22.253Z,16.98
2022-12-31T00:33:51.136Z,14.65
2022-12-31T00:36:21.481Z,14.07
2022-12-31T00:38:51.741Z,14.13
2022-12-31T00:41:20.538Z,14.15
2022-12-31T00:43:48.860Z,13.80
2022-12-31T00:46:18.309Z,10.93
2022-12-31T00:48:46.209Z,12.25
2022-12-31T00:51:16.589Z,10.40
2022-12-31T00:53:45.144Z,11.00
2022-12-31T00:56:24.182Z,11.13
2022-12-31T00:58:51.728Z,10.45
2022-12-31T01:01:34.681Z,11.18
2022-12-31T01:04:14.145Z,13.00
2022-12-31T01:06:42.874Z,11.40
2022-12-31T01:09:12.960Z,11.25
2022-12-31T01:11:41.464Z,11.65
2022-12-31T01:14:15.361Z,14.32
2022-12-31T01:16:51.505Z,14.27
2022-12-31T01:19:22.061Z,14.65
2022-12-31T01:21:53.618Z,12.90
2022-12-31T01:24:23.621Z,11.93
2022-12-31T01:26:51.921Z,11.43
2022-12-31T01:29:19.406Z,11.38
2022-12-31T01:31:46.980Z,11.93
2022-12-31T01:34:14.131Z,11.07
2022-12-31T01:36:41.782Z,10.35
2022-12-31T01:39:10.989Z,10.40
2022-12-31T01:41:42.903Z,9.40
2022-12-31T01:44:28.761Z,8.60
2022-12-31T01:47:00.731Z,9.38
2022-12-31T01:49:31.429Z,10.32
2022-12-31T01:52:02.149Z,10.88
2022-12-31T01:54:32.385Z,11.15
2022-12-31T01:57:00.593Z,13.98
2022-12-31T01:59:32.320Z,11.68
2022-12-31T02:02:01.597Z,10.57
2022-12-31T02:04:30.158Z,11.63
2022-12-31T02:07:01.334Z,13.55
2022-12-31T02:09:30.687Z,13.13
2022-12-31T02:11:58.161Z,12.32
2022-12-31T02:14:25.334Z,16.60
2022-12-31T02:16:56.695Z,15.10
2022-12-31T02:19:56.310Z,13.30
2022-12-31T02:22:47.224Z,9.73
2022-12-31T02:25:23.456Z,9.88
2022-12-31T02:28:13.054Z,9.52
2022-12-31T02:30:41.901Z,10.07
2022-12-31T02:33:10.311Z,8.48
2022-12-31T02:35:51.748Z,8.60
2022-12-31T02:38:50.087Z,8.40
2022-12-31T02:41:38.086Z,8.50
2022-12-31T02:44:29.206Z,7.93
2022-12-31T02:47:27.453Z,7.30
2022-12-31T02:50:10.439Z,6.95
2022-12-31T02:53:07.337Z,9.18
2022-12-31T02:55:50.096Z,7.32
2022-12-31T02:58:51.546Z,9.23
2022-12-31T03:01:49.216Z,7.88
2022-12-31T03:04:33.433Z,7.32
2022-12-31T03:07:02.312Z,7.50
2022-12-31T03:09:29.681Z,8.75
2022-12-31T03:12:15.543Z,11.88
2022-12-31T03:14:43.437Z,9.65
2022-12-31T03:17:11.136Z,8.80
2022-12-31T03:19:57.939Z,9.20
2022-12-31T03:22:28.610Z,7.60
2022-12-31T03:25:24.259Z,9.43
2022-12-31T03:27:54.080Z,8.60
2022-12-31T03:30:23.643Z,8.38
2022-12-31T03:32:51.488Z,11.05
2022-12-31T03:35:21.580Z,10.13
2022-12-31T03:37:51.916Z,11.77
2022-12-31T03:40:21.916Z,9.60
2022-12-31T03:42:50.483Z,9.10
2022-12-31T03:45:20.219Z,8.27
2022-12-31T03:47:48.385Z,7.60
2022-12-31T03:50:19.088Z,6.45
2022-12-31T03:52:48.114Z,7.70
2022-12-31T03:55:15.874Z,7.20
2022-12-31T03:57:45.589Z,7.35
2022-12-31T04:00:18.208Z,5.70
2022-12-31T04:02:47.499Z,7.10
2022-12-31T04:05:17.347Z,11.27
2022-12-31T04:07:45.520Z,8.35
2022-12-31T04:10:14.940Z,8.05
2022-12-31T04:12:43.352Z,7.22
2022-12-31T04:15:16.296Z,8.80
2022-12-31T04:17:47.062Z,10.23
2022-12-31T04:20:15.471Z,9.32
2022-12-31T04:22:44.289Z,8.32
2022-12-31T04:25:13.550Z,15.38
2022-12-31T04:27:43.876Z,10.27
2022-12-31T04:30:13.459Z,9.77
2022-12-31T04:32:41.505Z,9.50
2022-12-31T04:35:09.878Z,8.63
2022-12-31T04:37:37.901Z,8.38
2022-12-31T04:40:08.236Z,8.18
2022-12-31T04:42:36.610Z,9.80
2022-12-31T04:45:04.641Z,14.25
2022-12-31T04:47:32.109Z,13.45
2022-12-31T04:49:59.246Z,29.38
2022-12-31T04:52:26.665Z,26.08
2022-12-31T04:54:54.386Z,12.85
2022-12-31T04:57:22.070Z,18.70
2022-12-31T04:59:49.177Z,36.35
2022-12-31T05:02:16.878Z,18.48
2022-12-31T05:04:44.191Z,19.52
2022-12-31T05:07:11.849Z,9.30
2022-12-31T05:09:39.051Z,12.23
2022-12-31T05:12:06.698Z,12.38
2022-12-31T05:14:34.062Z,16.75
2022-12-31T05:17:01.570Z,25.65
2022-12-31T05:19:28.783Z,12.63
2022-12-31T05:22:14.674Z,20.45
2022-12-31T05:24:41.921Z,17.95
2022-12-31T05:27:09.559Z,14.35
2022-12-31T05:29:39.031Z,15.38
2022-12-31T05:32:06.404Z,11.98
2022-12-31T05:34:33.508Z,9.48
2022-12-31T05:37:02.048Z,17.02
2022-12-31T05:39:29.245Z,9.40
2022-12-31T05:41:56.884Z,14.15
2022-12-31T05:44:24.108Z,15.50
2022-12-31T05:46:51.655Z,24.88
2022-12-31T05:49:20.362Z,32.35
2022-12-31T05:51:51.670Z,19.83
2022-12-31T05:54:18.906Z,18.27
2022-12-31T05:56:47.543Z,16.33
2022-12-31T05:59:14.820Z,15.02
2022-12-31T06:01:42.514Z,13.00
2022-12-31T06:04:10.107Z,9.25
2022-12-31T06:06:37.553Z,12.82
2022-12-31T06:09:04.860Z,11.70
2022-12-31T06:11:33.402Z,9.57
2022-12-31T06:14:01.611Z,9.13
2022-12-31T06:16:32.055Z,11.52
2022-12-31T06:19:01.638Z,9.98
2022-12-31T06:21:29.889Z,14.95
2022-12-31T06:23:57.319Z,8.55
2022-12-31T06:26:27.025Z,16.77
2022-12-31T06:28:56.816Z,18.48
2022-12-31T06:31:24.273Z,19.25
2022-12-31T06:33:52.895Z,11.68
2022-12-31T06:36:22.009Z,14.00
2022-12-31T06:38:49.468Z,14.13
2022-12-31T06:41:18.950Z,13.13
2022-12-31T06:43:46.515Z,13.38
2022-12-31T06:46:17.027Z,13.35
2022-12-31T06:48:47.634Z,19.13
2022-12-31T06:51:18.544Z,20.58
2022-12-31T06:53:47.512Z,20.70
2022-12-31T06:56:19.017Z,21.05
2022-12-31T06:58:46.445Z,14.25
2022-12-31T07:01:46.674Z,28.85
2022-12-31T07:04:32.450Z,24.95
2022-12-31T07:07:21.297Z,14.52
2022-12-31T07:10:33.743Z,16.25
2022-12-31T07:13:12.336Z,24.55
2022-12-31T07:16:01.433Z,22.15
2022-12-31T07:18:56.308Z,21.80
2022-12-31T07:21:35.180Z,17.52
2022-12-31T07:24:09.914Z,26.08
2022-12-31T07:26:55.939Z,15.63
2022-12-31T07:30:19.409Z,21.73
2022-12-31T07:33:03.538Z,22.45
2022-12-31T07:35:45.201Z,26.50
2022-12-31T07:38:17.683Z,47.10
2022-12-31T07:41:11.506Z,158.95
2022-12-31T07:43:50.896Z,21.33
2022-12-31T07:46:35.933Z,19.10
2022-12-31T07:49:04.643Z,18.48
2022-12-31T07:51:32.321Z,29.50
2022-12-31T07:53:59.747Z,22.10
2022-12-31T07:56:27.030Z,21.27
2022-12-31T07:59:30.792Z,20.00
2022-12-31T08:02:08.574Z,25.77
2022-12-31T08:04:48.448Z,19.50
2022-12-31T08:07:36.970Z,20.13
2022-12-31T08:10:18.179Z,19.25
2022-12-31T08:12:50.774Z,19.92
2022-12-31T08:15:20.595Z,36.75
2022-12-31T08:17:51.994Z,30.25
2022-12-31T08:20:20.247Z,40.97
2022-12-31T08:23:16.408Z,43.17
2022-12-31T08:26:07.350Z,39.72
2022-12-31T08:29:03.007Z,28.00
2022-12-31T08:31:36.748Z,27.55
2022-12-31T08:34:27.034Z,66.05
2022-12-31T08:37:04.855Z,46.25
2022-12-31T08:39:53.867Z,29.98
2022-12-31T08:42:21.415Z,137.68
2022-12-31T08:45:17.182Z,31.70
2022-12-31T08:47:48.560Z,76.80
2022-12-31T08:50:20.478Z,161.60
2022-12-31T08:52:50.055Z,78.32
2022-12-31T08:55:19.553Z,122.45
2022-12-31T08:58:11.634Z,114.00
2022-12-31T09:00:41.949Z,86.40
2022-12-31T09:03:36.497Z,71.32
2022-12-31T09:06:16.630Z,60.28
2022-12-31T09:08:47.794Z,54.22
2022-12-31T09:11:44.427Z,50.65
2022-12-31T09:14:21.190Z,50.13
2022-12-31T09:16:57.538Z,48.55
2022-12-31T09:19:25.312Z,51.13
2022-12-31T09:21:54.949Z,49.97
2022-12-31T09:24:22.749Z,46.92
2022-12-31T09:27:04.667Z,41.38
2022-12-31T09:30:03.042Z,48.60
2022-12-31T09:33:07.992Z,50.30
2022-12-31T09:35:50.285Z,61.72
2022-12-31T09:38:28.847Z,75.72
2022-12-31T09:41:00.221Z,67.35
2022-12-31T09:44:28.705Z,70.28
2022-12-31T09:47:38.679Z,115.43
2022-12-31T09:50:35.584Z,78.75
2022-12-31T09:53:24.888Z,63.70
2022-12-31T09:55:55.440Z,62.33
2022-12-31T09:58:59.770Z,56.30
2022-12-31T10:01:50.084Z,62.47
2022-12-31T10:04:44.090Z,66.47
2022-12-31T10:07:33.171Z,66.72
2022-12-31T10:10:09.595Z,71.18
2022-12-31T10:12:51.372Z,77.57
2022-12-31T10:15:31.295Z,71.35
2022-12-31T10:18:32.322Z,65.47
2022-12-31T10:21:26.844Z,63.08
2022-12-31T10:24:32.808Z,58.85
2022-12-31T10:29:43.097Z,27.92
2022-12-31T10:32:19.411Z,22.43
2022-12-31T10:34:59.134Z,17.17
2022-12-31T10:37:43.745Z,18.98
2022-12-31T10:43:03.150Z,23.67
2022-12-31T10:45:52.391Z,15.20
2022-12-31T10:48:45.084Z,63.25
2022-12-31T10:51:24.850Z,12.93
2022-12-31T10:54:13.144Z,11.18
2022-12-31T10:57:01.286Z,12.80
2022-12-31T10:59:43.473Z,14.27
2022-12-31T11:02:14.198Z,14.20
2022-12-31T11:04:47.819Z,11.10
2022-12-31T11:07:34.134Z,15.65
2022-12-31T11:10:26.263Z,16.42
2022-12-31T11:13:10.818Z,12.68
2022-12-31T11:15:57.762Z,41.42
2022-12-31T11:18:53.951Z,12.00
2022-12-31T11:21:28.647Z,38.40
2022-12-31T11:24:25.886Z,61.40
2022-12-31T11:27:36.388Z,54.70
2022-12-31T11:30:54.529Z,67.10
2022-12-31T11:33:50.023Z,64.28
2022-12-31T11:36:48.286Z,60.30
2022-12-31T11:39:25.840Z,48.40
2022-12-31T11:42:19.441Z,45.58
2022-12-31T11:45:01.271Z,48.35
2022-12-31T11:51:32.149Z,45.90
2022-12-31T11:54:21.410Z,55.03
2022-12-31T11:57:00.288Z,51.85
2022-12-31T11:59:27.689Z,60.75
2022-12-31T12:02:16.581Z,63.05
2022-12-31T12:04:48.709Z,60.72
2022-12-31T12:07:16.820Z,54.10
2022-12-31T12:09:45.629Z,53.78
2022-12-31T12:12:13.219Z,52.75
2022-12-31T12:14:43.094Z,44.50
2022-12-31T12:17:16.795Z,50.08
2022-12-31T12:22:21.846Z,44.72
2022-12-31T12:25:06.223Z,36.40
2022-12-31T12:27:35.854Z,59.57
2022-12-31T12:30:10.659Z,72.13
2022-12-31T12:32:38.026Z,44.25
2022-12-31T12:35:17.378Z,57.50
2022-12-31T12:37:44.505Z,67.38
2022-12-31T12:40:24.056Z,78.82
2022-12-31T12:42:59.567Z,83.25
2022-12-31T12:46:46.095Z,60.58
2022-12-31T12:49:26.004Z,28.55
2022-12-31T12:52:26.541Z,15.32
2022-12-31T12:55:06.541Z,11.13
2022-12-31T12:57:57.517Z,46.88
2022-12-31T13:01:08.601Z,35.13
2022-12-31T13:07:24.896Z,36.70
2022-12-31T13:10:23.136Z,37.38
2022-12-31T13:13:25.789Z,24.58
2022-12-31T13:16:05.817Z,13.00
2022-12-31T13:18:48.062Z,7.47
2022-12-31T13:21:57.106Z,6.90
2022-12-31T13:24:48.287Z,14.30
2022-12-31T13:27:33.880Z,15.40
2022-12-31T13:30:17.342Z,13.90
2022-12-31T13:33:13.347Z,14.32
2022-12-31T13:35:49.172Z,12.23
2022-12-31T13:38:39.633Z,7.85
2022-12-31T13:41:17.614Z,8.70
2022-12-31T13:43:58.940Z,13.00
2022-12-31T13:46:44.316Z,16.13
2022-12-31T13:49:24.412Z,12.70
2022-12-31T13:52:02.464Z,14.30
2022-12-31T13:54:52.567Z,13.02
2022-12-31T13:57:45.609Z,10.07
2022-12-31T14:00:25.113Z,10.10
2022-12-31T14:03:00.755Z,9.48
2022-12-31T14:05:46.881Z,9.57
2022-12-31T14:08:14.514Z,9.00
2022-12-31T14:10:45.030Z,9.75
2022-12-31T14:13:32.516Z,11.65
2022-12-31T14:16:11.676Z,8.30
2022-12-31T14:19:14.114Z,10.40
2022-12-31T14:22:01.066Z,20.38
2022-12-31T14:24:40.509Z,18.15
2022-12-31T14:27:17.210Z,20.50
2022-12-31T14:30:18.274Z,21.42
2022-12-31T14:33:04.965Z,24.45
2022-12-31T14:35:56.884Z,27.80
2022-12-31T14:38:39.438Z,25.48
2022-12-31T14:41:22.624Z,21.73
2022-12-31T14:44:21.881Z,17.17
2022-12-31T14:47:14.709Z,15.25
2022-12-31T14:49:48.079Z,9.93
2022-12-31T14:52:46.990Z,14.13
2022-12-31T14:55:17.127Z,22.13
2022-12-31T14:58:26.013Z,23.08
2022-12-31T15:00:38.795Z,27.60
2022-12-31T15:03:24.517Z,31.20
2022-12-31T15:05:59.230Z,125.53
2022-12-31T15:11:23.894Z,67.88
2022-12-31T15:14:12.478Z,50.38
2022-12-31T15:16:50.727Z,55.55
2022-12-31T15:19:43.747Z,207.25
2022-12-31T15:22:49.858Z,61.90
2022-12-31T15:25:41.132Z,106.88
2022-12-31T15:28:39.779Z,99.57
2022-12-31T15:31:18.871Z,86.68
2022-12-31T15:34:04.236Z,83.78
2022-12-31T15:36:39.012Z,173.65
2022-12-31T15:39:25.626Z,106.57
2022-12-31T15:42:36.172Z,128.70
2022-12-31T15:45:04.718Z,95.35
2022-12-31T15:47:46.455Z,94.97
2022-12-31T15:50:19.043Z,90.80
2022-12-31T15:52:56.636Z,68.13
2022-12-31T15:55:41.801Z,57.65
2022-12-31T15:58:16.934Z,59.97
2022-12-31T16:01:05.886Z,65.13
2022-12-31T16:03:33.907Z,50.22
2022-12-31T16:06:04.471Z,52.70
2022-12-31T16:08:36.112Z,109.82
2022-12-31T16:11:05.986Z,213.50
2022-12-31T16:13:36.978Z,118.38
2022-12-31T16:16:19.602Z,158.20
2022-12-31T16:18:46.878Z,187.15
2022-12-31T16:21:36.666Z,189.52
2022-12-31T16:24:26.629Z,181.52
2022-12-31T16:26:59.981Z,158.10
2022-12-31T16:29:27.637Z,211.88
2022-12-31T16:31:55.258Z,181.20
2022-12-31T16:34:25.082Z,221.45
2022-12-31T16:36:57.530Z,315.67
2022-12-31T16:39:38.339Z,155.27
2022-12-31T16:42:14.961Z,98.05
2022-12-31T16:44:42.513Z,130.68
2022-12-31T16:47:27.577Z,192.38
2022-12-31T16:50:20.519Z,151.05
2022-12-31T16:52:57.947Z,119.63
2022-12-31T16:55:28.923Z,91.85
2022-12-31T16:58:08.197Z,74.97
2022-12-31T17:00:36.961Z,66.72
2022-12-31T17:03:28.116Z,92.85
2022-12-31T17:06:54.241Z,67.57
2022-12-31T17:09:39.001Z,209.55
2022-12-31T17:12:18.218Z,160.75
2022-12-31T17:15:04.913Z,189.68
2022-12-31T17:17:37.647Z,373.73
2022-12-31T17:20:23.148Z,216.93
2022-12-31T17:22:56.954Z,84.55
2022-12-31T17:25:31.699Z,121.47
2022-12-31T17:28:03.298Z,385.35
2022-12-31T17:30:31.516Z,189.52
2022-12-31T17:33:01.159Z,198.85
2022-12-31T17:35:33.061Z,432.77
2022-12-31T17:38:21.648Z,347.83
2022-12-31T17:41:22.303Z,100.38
2022-12-31T17:43:54.414Z,74.45
2022-12-31T17:46:25.763Z,59.78
2022-12-31T17:49:02.506Z,92.32
2022-12-31T17:51:30.102Z,89.95
2022-12-31T17:54:00.438Z,204.65
2022-12-31T17:56:53.095Z,203.13
2022-12-31T17:59:29.794Z,150.57
2022-12-31T18:02:03.444Z,121.50
2022-12-31T18:04:31.001Z,190.75
2022-12-31T18:06:58.561Z,275.08
2022-12-31T18:09:25.693Z,250.77
2022-12-31T18:11:55.637Z,209.93
2022-12-31T18:14:26.899Z,211.63
2022-12-31T18:16:54.647Z,171.85
2022-12-31T18:19:46.196Z,200.20
2022-12-31T18:22:16.168Z,182.23
2022-12-31T18:24:44.435Z,113.03
2022-12-31T18:27:17.294Z,85.18
2022-12-31T18:29:45.717Z,79.93
2022-12-31T18:32:34.353Z,94.03
2022-12-31T18:35:03.230Z,151.07
2022-12-31T18:37:32.705Z,155.38
2022-12-31T18:40:00.896Z,122.30
2022-12-31T18:42:33.587Z,131.80
2022-12-31T18:45:01.633Z,116.88
2022-12-31T18:47:37.289Z,134.15
2022-12-31T18:50:06.929Z,105.88
2022-12-31T18:52:34.425Z,101.82
2022-12-31T18:55:02.723Z,85.88
2022-12-31T18:57:30.229Z,128.20
2022-12-31T18:59:57.624Z,70.78
2022-12-31T19:02:25.655Z,70.15
2022-12-31T19:04:54.450Z,69.15
2022-12-31T19:07:23.363Z,75.78
2022-12-31T19:09:58.477Z,62.75
2022-12-31T19:12:26.400Z,65.82
2022-12-31T19:14:53.557Z,61.83
2022-12-31T19:17:21.801Z,60.60
2022-12-31T19:19:48.923Z,75.75
2022-12-31T19:22:16.401Z,66.57
2022-12-31T19:24:44.569Z,57.58
2022-12-31T19:27:13.500Z,59.65
2022-12-31T19:29:40.728Z,87.22
2022-12-31T19:32:08.235Z,61.13
2022-12-31T19:34:35.440Z,137.88
2022-12-31T19:37:02.896Z,87.95
2022-12-31T19:39:30.053Z,67.90
2022-12-31T19:41:59.917Z,64.85
2022-12-31T19:44:30.125Z,137.13
2022-12-31T19:46:58.826Z,65.82
2022-12-31T19:49:25.965Z,62.22
2022-12-31T19:51:53.992Z,141.05
2022-12-31T19:54:22.254Z,139.38
2022-12-31T19:56:50.703Z,216.32
2022-12-31T19:59:17.829Z,183.52
2022-12-31T20:01:49.850Z,219.32
2022-12-31T20:04:18.635Z,170.75
2022-12-31T20:06:49.621Z,194.63
2022-12-31T20:09:19.130Z,138.07
2022-12-31T20:11:46.905Z,110.97
2022-12-31T20:14:14.040Z,73.78
2022-12-31T20:16:41.700Z,152.13
2022-12-31T20:19:10.576Z,212.32
2022-12-31T20:21:39.250Z,216.80
2022-12-31T20:24:08.055Z,274.95
2022-12-31T20:26:36.412Z,204.85
2022-12-31T20:29:03.603Z,241.25
2022-12-31T20:31:31.188Z,413.33
2022-12-31T20:33:58.424Z,210.63
2022-12-31T20:36:26.693Z,211.13
2022-12-31T20:38:54.949Z,185.80
2022-12-31T20:41:23.161Z,266.67
2022-12-31T20:43:51.027Z,195.30
2022-12-31T20:46:24.932Z,229.07
2022-12-31T20:48:55.244Z,152.13
2022-12-31T20:51:23.579Z,278.25
2022-12-31T20:53:55.167Z,161.32
2022-12-31T20:56:25.000Z,143.40
2022-12-31T20:58:52.176Z,85.35
2022-12-31T21:01:20.036Z,135.20
2022-12-31T21:04:06.019Z,57.05
2022-12-31T21:06:35.611Z,72.65
2022-12-31T21:09:05.221Z,74.13
2022-12-31T21:11:51.254Z,59.10
2022-12-31T21:14:18.463Z,56.40
2022-12-31T21:16:45.986Z,62.17
2022-12-31T21:19:13.142Z,67.85
2022-12-31T21:21:40.901Z,62.38
2022-12-31T21:24:08.612Z,61.17
2022-12-31T21:26:36.076Z,54.58
2022-12-31T21:29:03.342Z,52.92
2022-12-31T21:31:30.847Z,53.10
2022-12-31T21:33:58.019Z,57.55
2022-12-31T21:36:25.488Z,61.45
2022-12-31T21:38:52.693Z,62.75
2022-12-31T21:41:38.986Z,58.90
2022-12-31T21:44:06.872Z,62.55
2022-12-31T21:46:34.386Z,85.45
2022-12-31T21:49:01.695Z,66.05
2022-12-31T21:51:30.624Z,49.67
2022-12-31T21:53:57.903Z,48.85
2022-12-31T21:56:25.443Z,47.63
2022-12-31T21:59:16.713Z,41.55
2022-12-31T22:02:03.155Z,40.83
2022-12-31T22:07:18.430Z,52.75
2022-12-31T22:09:46.949Z,81.45
2022-12-31T22:12:14.402Z,45.60
2022-12-31T22:15:15.586Z,45.83
2022-12-31T22:17:28.979Z,49.78
2022-12-31T22:22:43.937Z,62.97
2022-12-31T22:25:11.200Z,55.83
2022-12-31T22:27:39.164Z,64.53
2022-12-31T22:30:07.343Z,49.35
2022-12-31T22:32:34.837Z,52.08
2022-12-31T22:35:02.099Z,59.45
2022-12-31T22:37:56.476Z,34.85
2022-12-31T22:40:17.670Z,31.40
2022-12-31T22:42:45.674Z,36.90
2022-12-31T22:45:12.929Z,30.92
2022-12-31T22:47:40.419Z,33.60
2022-12-31T22:50:08.044Z,64.25
2022-12-31T22:52:35.523Z,67.82
2022-12-31T22:55:02.856Z,48.88
2022-12-31T22:57:31.988Z,35.80
2022-12-31T23:00:03.787Z,45.08
2022-12-31T23:02:39.848Z,29.35
2022-12-31T23:05:15.829Z,31.05
2022-12-31T23:07:43.975Z,56.13
2022-12-31T23:10:29.683Z,64.50
2022-12-31T23:12:59.087Z,60.53
2022-12-31T23:15:44.762Z,61.33
2022-12-31T23:18:30.581Z,59.17
2022-12-31T23:21:16.253Z,50.97
2022-12-31T23:23:43.782Z,54.60
2022-12-31T23:26:10.926Z,87.00
2022-12-31T23:28:38.345Z,55.72
2022-12-31T23:31:06.669Z,66.63
2022-12-31T23:33:35.461Z,69.47
2022-12-31T23:36:06.179Z,108.45
2022-12-31T23:38:33.994Z,92.28
2022-12-31T23:41:01.412Z,94.72
2022-12-31T23:43:29.137Z,101.82
2022-12-31T23:45:57.743Z,96.57
2022-12-31T23:48:25.453Z,112.25
2022-12-31T23:50:54.258Z,105.30
2022-12-31T23:53:25.177Z,161.82
2022-12-31T23:55:53.356Z,143.05
2022-12-31T23:58:21.317Z,132.13
